• Join FlightAware (Why Join?)
  • Login
  • US Flag 
05:48AM EDT


 

Airport Tracker/Info


-or-


 

Live Flight TrackerFlight Track Log ✈ N143DE ✈ 30-Jun-2013 ✈ KDFW - KRYY

Flight Track Log - Related Links

Times and Time Zones

All times are in EDT time to prevent confusion due to time zone crossing. See the N143DE flight status page for this flight to view local times or setup timezone preferences in your user account.

Time Position Orientation Groundspeed Altitude Reporting Facility
EDT Latitude Longitude Course Direction KTS MPH feet Rate Location/Type
05:36AM 32.9000 -97.0333 29° Northeast 126 145 1,000  Level Dallas / Fort Worth TRACON
05:37AM 32.9500 -97.0000 29° Northeast 164 189 2,900 1,560 Climbing Dallas / Fort Worth TRACON
05:38AM 32.9833 -96.9667 40° Northeast 171 197 4,500 1,680 Climbing Dallas / Fort Worth TRACON
05:39AM 33.0000 -96.9167 68° East 182 209 6,300 1,740 Climbing Dallas / Fort Worth TRACON
05:40AM 33.0000 -96.8333 90° East 204 235 8,200 1,680 Climbing Dallas / Fort Worth TRACON
05:41AM 33.0000 -96.7667 90° East 200 230 9,900 1,500 Climbing Dallas / Fort Worth TRACON
05:44AM 33.0272 -96.6256 77° East 202 232 13,300 1,320 Climbing Fort Worth Center
05:45AM 33.0414 -96.5561 76° East 207 238 14,500 1,200 Climbing Fort Worth Center
05:46AM 33.0472 -96.4889 84° East 219 252 15,700 1,140 Climbing Fort Worth Center
05:47AM 33.0569 -96.4097 82° East 219 252 16,800 1,080 Climbing Fort Worth Center
05:48AM 33.0647 -96.3350 83° East 219 252 17,900 1,200 Climbing Fort Worth Center
05:49AM 33.0744 -96.2656 80° East 214 246 19,200 1,080 Climbing Fort Worth Center
05:50AM 33.0842 -96.1961 80° East 221 254 20,100 900 Climbing Fort Worth Center
05:51AM 33.0919 -96.1217 83° East 221 254 21,100 900 Climbing Fort Worth Center
05:52AM 33.1017 -96.0519 81° East 216 249 21,900 780 Climbing Fort Worth Center
05:53AM 33.1111 -95.9775 81° East 216 249 22,700 720 Climbing Fort Worth Center
05:54AM 33.1186 -95.9028 83° East 222 255 23,400 660 Climbing Fort Worth Center
05:55AM 33.1261 -95.8283 83° East 222 255 24,100 600 Climbing Fort Worth Center
05:56AM 33.1378 -95.7561 79° East 222 255 24,700 480 Climbing Fort Worth Center
05:57AM 33.1472 -95.6792 82° East 222 255 25,100 180 Climbing Fort Worth Center
05:58AM 33.1586 -95.6019 80° East 222 255 25,100 -60 Level Fort Worth Center
05:59AM 33.1697 -95.5125 82° East 242 278 25,000 -60 Descending Fort Worth Center
06:00AM 33.1725 -95.4256 88° East 255 293 25,000  Level Fort Worth Center
06:01AM 33.1900 -95.3408 76° East 260 299 25,000  Level Fort Worth Center
06:02AM 33.1969 -95.2511 85° East 260 299 25,000  Level Fort Worth Center
06:03AM 33.2100 -95.1639 80° East 260 299 25,000  Level Fort Worth Center
06:04AM 33.2208 -95.0767 82° East 260 299 25,000  Level Fort Worth Center
06:05AM 33.2297 -94.9897 83° East 260 299 25,000  Level Fort Worth Center
06:06AM 33.2383 -94.9025 83° East 260 299 25,000  Level Fort Worth Center
06:07AM 33.2492 -94.8153 82° East 260 299 25,000  Level Fort Worth Center
06:08AM 33.2619 -94.7256 80° East 260 299 25,000  Level Fort Worth Center
06:09AM 33.2703 -94.6383 83° East 260 299 25,000  Level Fort Worth Center
06:10AM 33.2831 -94.5483 80° East 260 299 25,000  Level Fort Worth Center
06:11AM 33.2914 -94.4611 83° East 260 299 25,000  Level Fort Worth Center
06:12AM 33.3039 -94.3714 81° East 266 306 25,000  Level Fort Worth Center
06:13AM 33.3119 -94.2789 84° East 266 306 25,000  Level Fort Worth Center
06:14AM 33.3222 -94.1892 82° East 277 319 25,000  Level Fort Worth Center
06:15AM 33.3325 -94.0967 82° East 277 319 25,000  Level Fort Worth Center
06:16AM 33.3408 -94.0244 82° East 277 319 25,000  Level Fort Worth Center
06:17AM 33.3528 -93.9219 82° East 277 319 25,000  Level Fort Worth Center
06:18AM 33.3606 -93.8297 84° East 277 319 25,000  Level Fort Worth Center
06:19AM 33.3764 -93.7319 79° East 282 325 25,000  Level Fort Worth Center
06:20AM 33.3842 -93.6372 84° East 282 325 25,000  Level Fort Worth Center
06:21AM 33.3939 -93.5447 83° East 277 319 25,000  Level Fort Worth Center
06:22AM 33.4053 -93.4472 82° East 277 319 25,000  Level Fort Worth Center
06:23AM 33.4150 -93.3522 83° East 277 319 25,000  Level Fort Worth Center
06:24AM 33.4264 -93.2572 82° East 277 319 25,000  Level Fort Worth Center
06:25AM 33.4358 -93.1622 83° East 277 319 25,000  Level Fort Worth Center
06:26AM 33.4450 -93.0644 84° East 277 319 25,000  Level Fort Worth Center
06:27AM 33.4561 -92.9694 82° East 282 325 25,000  Level Fort Worth Center
06:28AM 33.4653 -92.8719 84° East 287 330 25,000  Level Fort Worth Center
06:29AM 33.4761 -92.7742 82° East 292 336 25,000  Level Fort Worth Center
06:30AM 33.4850 -92.6767 84° East 292 336 25,000  Level Fort Worth Center
06:32AM 33.5086 -92.4350 83° East 302 348 25,000  Level Memphis Center
06:33AM 33.5183 -92.3381 83° East 297 342 25,000  Level Memphis Center
06:34AM 33.5283 -92.2411 83° East 292 336 25,000  Level Memphis Center
06:35AM 33.5381 -92.1417 83° East 292 336 25,000  Level Memphis Center
06:36AM 33.5478 -92.0447 83° East 292 336 25,000  Level Memphis Center
06:37AM 33.5533 -91.9450 86° East 292 336 25,000  Level Memphis Center
06:38AM 33.5628 -91.8431 84° East 292 336 25,000  Level Memphis Center
06:39AM 33.5744 -91.7411 82° East 292 336 25,000  Level Memphis Center
06:40AM 33.5797 -91.6339 87° East 303 349 25,000  Level Memphis Center
06:41AM 33.5869 -91.5342 85° East 303 349 25,000  Level Memphis Center
06:42AM 33.5964 -91.4294 84° East 309 356 25,000  Level Memphis Center
06:43AM 33.6075 -91.3300 82° East 309 356 25,100  Climbing Memphis Center
06:44AM 33.6167 -91.2278 84° East 309 356 25,100  Level Memphis Center
06:45AM 33.6236 -91.1231 85° East 309 356 25,100  Level Memphis Center
06:46AM 33.6347 -91.0183 83° East 309 356 25,100  Level Memphis Center
06:47AM 33.6433 -90.9161 84° East 309 356 25,100  Level Memphis Center
06:48AM 33.6500 -90.8114 86° East 309 356 25,100  Level Memphis Center
06:49AM 33.6608 -90.7067 83° East 309 356 25,100  Level Memphis Center
06:50AM 33.6675 -90.6044 85° East 309 356 25,100  Level Memphis Center
06:51AM 33.6781 -90.4969 83° East 309 356 25,100  Level Memphis Center
06:52AM 33.6864 -90.3947 84° East 309 356 25,100  Level Memphis Center
06:53AM 33.6928 -90.2897 86° East 309 356 25,100  Level Memphis Center
06:54AM 33.7031 -90.1850 83° East 309 356 25,100  Level Memphis Center
06:55AM 33.7092 -90.0800 86° East 309 356 25,100  Level Memphis Center
06:56AM 33.7192 -89.9750 83° East 309 356 25,100  Level Memphis Center
06:57AM 33.7272 -89.8678 85° East 309 356 25,100  Level Memphis Center
06:58AM 33.7350 -89.7503 85° East 317 365 25,100  Level Memphis Center
06:59AM 33.7428 -89.6453 85° East 317 365 25,100  Level Memphis Center
07:00AM 33.7525 -89.5428 83° East 317 365 25,100  Level Memphis Center
07:01AM 33.7581 -89.4378 86° East 312 359 25,100  Level Memphis Center
07:02AM 33.7678 -89.3353 83° East 312 359 25,100  Level Memphis Center
07:03AM 33.7731 -89.2328 86° East 312 359 25,100  Level Memphis Center
07:04AM 33.7806 -89.1300 85° East 312 359 25,100  Level Memphis Center
07:05AM 33.7897 -89.0250 84° East 312 359 25,100  Level Memphis Center
07:06AM 33.7969 -88.9225 85° East 312 359 25,100  Level Memphis Center
07:07AM 33.8019 -88.8172 87° East 312 359 25,100  Level Memphis Center
07:08AM 33.8092 -88.7147 85° East 312 359 25,100  Level Memphis Center
07:09AM 33.8139 -88.6122 87° East 312 359 25,100  Level Memphis Center
07:10AM 33.8208 -88.5094 85° East 312 359 25,100  Level Memphis Center
07:11AM 33.8275 -88.4092 85° East 312 359 25,100  Level Memphis Center
07:12AM 33.8344 -88.3067 85° East 307 353 25,100  Level Memphis Center
07:13AM 33.8408 -88.2064 86° East 307 353 25,100  Level Memphis Center
07:14AM 33.8494 -88.1011 84° East 314 361 25,100  Level Memphis Center
07:15AM 33.8519 -88.0036 88° East 314 361 25,100  Level Memphis Center
07:17AM 33.8636 -87.8214 86° East 307 353 25,100  Level Atlanta Center
07:18AM 33.8708 -87.7192 85° East 307 353 25,100  Level Atlanta Center
07:19AM 33.8758 -87.6192 87° East 307 353 25,100  Level Atlanta Center
07:20AM 33.8808 -87.5194 87° East 307 353 25,100 -300 Level Atlanta Center
07:21AM 33.8856 -87.4169 87° East 307 353 24,500 -660 Descending Atlanta Center
07:22AM 33.8928 -87.3072 85° East 313 360 23,800 -660 Descending Atlanta Center
07:23AM 33.8997 -87.1997 86° East 313 360 23,200 -420 Descending Atlanta Center
07:24AM 33.9044 -87.0947 87° East 313 360 23,000 -120 Descending Atlanta Center
07:25AM 33.9111 -86.9950 85° East 306 352 23,000  Level Atlanta Center
07:26AM 33.9156 -86.8950 87° East 301 346 23,000 -360 Level Atlanta Center
07:27AM 33.9200 -86.7925 87° East 301 346 22,300 -900 Descending Atlanta Center
07:28AM 33.9264 -86.6875 86° East 306 352 21,200 -1,080 Descending Atlanta Center
07:29AM 33.9308 -86.5800 87° East 312 359 20,200 -1,080 Descending Atlanta Center
07:30AM 33.9372 -86.4750 86° East 312 359 19,100 -1,080 Descending Atlanta Center
07:31AM 33.9414 -86.3650 87° East 312 359 18,100 -900 Descending Atlanta Center
07:32AM 33.9475 -86.2625 86° East 307 353 17,400 -720 Descending Atlanta Center
07:33AM 33.9533 -86.1625 86° East 307 353 16,700 -900 Descending Atlanta Center
07:34AM 33.9572 -86.0600 87° East 307 353 15,700 -1,020 Descending Atlanta Center
07:35AM 33.9611 -85.9472 88° East 307 353 14,700 -960 Descending Atlanta Center
07:36AM 33.9711 -85.8422 83° East 312 359 13,800 -840 Descending Atlanta Center
07:37AM 33.9744 -85.7447 88° East 301 346 13,100 -900 Descending Atlanta Center
07:38AM 33.9736 -85.6469 91° East 296 341 12,100 -1,020 Descending Atlanta Center
07:39AM 33.9814 -85.5444 85° East 301 346 11,100 -900 Descending Atlanta Center
07:40AM 33.9844 -85.4467 88° East 296 341 10,300 -900 Descending Atlanta Center
07:41AM 33.9897 -85.3517 86° East 287 330 9,400 -840 Descending Atlanta Center
07:42AM 33.9928 -85.2539 88° East 287 330 8,700 -660 Descending Atlanta Center
07:43AM 33.9958 -85.1664 88° East 269 310 8,100 -300 Descending Atlanta Center
07:44AM 33.9986 -85.0911 87° East 262 302 8,100 -240 Level Atlanta Center
07:45AM 34.0056 -85.0061 84° East 252 290 7,700 -720 Descending Atlanta Center
07:46AM 34.0228 -84.9261 75° East 247 284 6,700 -1,200 Descending Atlanta Center
07:47AM 34.0378 -84.8461 77° East 247 284 5,300 -1,320 Descending Atlanta Center
07:48AM 34.0508 -84.7683 79° East 236 272 4,100 -660 Descending Atlanta Center
07:49AM 34.0639 -84.6933 78° East 222 255 4,000 -60 Descending Atlanta Center
07:50AM 34.0725 -84.6281 81° East 207 238 4,000 -840 Level Atlanta Center
07:52AM 34.0167 -84.5500 131° Southeast 167 192 1,800 -1,320 Descending Atlanta TRACON
07:54AM 34.0000 -84.5833 239° Southwest  Level FlightAware Approximate
08:01AM 34.0132 -84.5971 239° Southwest  Level Estimated